CheckWX is a tool to help pilots better visualize weather data.  It is not intended as a substitute for an official pre-flight weather briefing.

13:00:48 UTC

C65 METAR
Plymouth Municipal Airport
Plymouth, Indiana, USA
Current

26 mins ago

KC65 251235Z AUTO 04009G14KT 5SM BR OVC009 01/00 A2982 RMK A01
Observed
Feb-25 @ 12:35 UTC
Wind
  • 040° at 9 KTS
  • Gusting to 14 KTS
Visibility
5 SM
Flight Rules
IFR
Conditions
Mist
Cloud Levels
  • Overcast at 900' AGL
Temperature
C / 34°F
Dewpoint
C / 32°F
Humidity
93%
Altimeter
29.82" Hg
Pressure
1009.82 hPa
Previous

46 mins ago

KC65 251215Z AUTO 04006G13KT 5SM BR OVC008 01/01 A2982 RMK A01
Observed
Feb-25 @ 12:15 UTC
Wind
  • 040° at 6 KTS
  • Gusting to 13 KTS
Visibility
5 SM
Flight Rules
IFR
Conditions
Mist
Cloud Levels
  • Overcast at 800' AGL
Temperature
C / 34°F
Dewpoint
C / 34°F
Humidity
100%
Altimeter
29.82" Hg
Pressure
1009.82 hPa
Previous

1 hour ago

KC65 251155Z AUTO 05007G15KT 4SM BR OVC008 01/01 A2982 RMK A01
Observed
Feb-25 @ 11:55 UTC
Wind
  • 050° at 7 KTS
  • Gusting to 15 KTS
Visibility
4 SM
Flight Rules
IFR
Conditions
Mist
Cloud Levels
  • Overcast at 800' AGL
Temperature
C / 34°F
Dewpoint
C / 34°F
Humidity
100%
Altimeter
29.82" Hg
Pressure
1009.82 hPa